createdAt,value
2023-04-03T00:00:42.220Z,21.60
2023-04-03T00:03:09.388Z,21.60
2023-04-03T00:05:36.430Z,21.60
2023-04-03T00:08:03.328Z,21.60
2023-04-03T00:10:30.130Z,21.60
2023-04-03T00:12:57.244Z,21.60
2023-04-03T00:15:24.050Z,21.60
2023-04-03T00:17:50.941Z,21.60
2023-04-03T00:20:17.901Z,21.60
2023-04-03T00:22:44.751Z,21.60
2023-04-03T00:25:11.531Z,21.60
2023-04-03T00:27:41.404Z,21.60
2023-04-03T00:30:11.840Z,21.60
2023-04-03T00:32:38.613Z,21.50
2023-04-03T00:35:06.186Z,21.60
2023-04-03T00:37:33.260Z,21.60
2023-04-03T00:40:00.446Z,21.60
2023-04-03T00:42:27.309Z,21.60
2023-04-03T00:44:54.009Z,21.50
2023-04-03T00:47:20.772Z,21.50
2023-04-03T00:49:47.645Z,21.50
2023-04-03T00:52:18.841Z,21.60
2023-04-03T00:54:48.643Z,21.60
2023-04-03T00:57:16.989Z,21.60
2023-04-03T00:59:46.982Z,21.50
2023-04-03T01:02:13.769Z,21.50
2023-04-03T01:04:43.597Z,21.50
2023-04-03T01:07:11.871Z,21.60
2023-04-03T01:09:39.850Z,21.50
2023-04-03T01:12:20.712Z,21.60
2023-04-03T01:14:54.412Z,21.60
2023-04-03T01:17:30.631Z,21.50
2023-04-03T01:20:16.025Z,21.60
2023-04-03T01:22:58.400Z,21.60
2023-04-03T01:25:25.754Z,21.50
2023-04-03T01:27:52.535Z,21.50
2023-04-03T01:30:21.111Z,21.50
2023-04-03T01:32:47.929Z,21.50
2023-04-03T01:35:14.684Z,21.60
2023-04-03T01:37:41.560Z,21.50
2023-04-03T01:40:09.193Z,21.50
2023-04-03T01:42:35.997Z,21.60
2023-04-03T01:45:02.948Z,21.50
2023-04-03T01:47:29.724Z,21.60
2023-04-03T01:49:56.503Z,21.50
2023-04-03T01:52:23.241Z,21.50
2023-04-03T01:54:50.001Z,21.50
2023-04-03T01:57:17.163Z,21.50
2023-04-03T01:59:43.969Z,21.50
2023-04-03T02:02:11.080Z,21.50
2023-04-03T02:04:37.795Z,21.50
2023-04-03T02:07:04.724Z,21.50
2023-04-03T02:09:31.445Z,21.50
2023-04-03T02:11:58.156Z,21.50
2023-04-03T02:14:24.952Z,21.50
2023-04-03T02:16:51.915Z,21.50
2023-04-03T02:19:18.676Z,21.50
2023-04-03T02:21:45.626Z,21.50
2023-04-03T02:24:12.404Z,21.50
2023-04-03T02:26:39.187Z,21.50
2023-04-03T02:29:05.998Z,21.50
2023-04-03T02:31:32.837Z,21.50
2023-04-03T02:33:59.588Z,21.50
2023-04-03T02:36:26.380Z,21.50
2023-04-03T02:38:53.160Z,21.50
2023-04-03T02:41:19.893Z,21.50
2023-04-03T02:43:46.640Z,21.50
2023-04-03T02:46:16.094Z,21.50
2023-04-03T02:48:42.926Z,21.50
2023-04-03T02:51:09.666Z,21.50
2023-04-03T02:53:36.406Z,21.50
2023-04-03T02:56:03.230Z,21.50
2023-04-03T02:58:30.002Z,21.50
2023-04-03T03:00:56.788Z,21.50
2023-04-03T03:03:24.015Z,21.50
2023-04-03T03:05:50.840Z,21.50
2023-04-03T03:08:21.065Z,21.50
2023-04-03T03:10:47.807Z,21.50
2023-04-03T03:13:14.523Z,21.50
2023-04-03T03:15:41.289Z,21.50
2023-04-03T03:18:08.223Z,21.50
2023-04-03T03:20:35.183Z,21.50
2023-04-03T03:23:02.076Z,21.40
2023-04-03T03:25:28.812Z,21.50
2023-04-03T03:27:55.840Z,21.50
2023-04-03T03:30:22.849Z,21.50
2023-04-03T03:32:49.716Z,21.50
2023-04-03T03:35:16.649Z,21.50
2023-04-03T03:37:43.422Z,21.50
2023-04-03T03:40:12.172Z,21.50
2023-04-03T03:42:38.901Z,21.40
2023-04-03T03:45:06.594Z,21.40
2023-04-03T03:47:33.392Z,21.40
2023-04-03T03:50:00.342Z,21.40
2023-04-03T03:52:27.345Z,21.40
2023-04-03T03:54:54.121Z,21.40
2023-04-03T03:57:21.644Z,21.50
2023-04-03T03:59:49.651Z,21.40
2023-04-03T04:02:17.425Z,21.40
2023-04-03T04:04:44.280Z,21.40
2023-04-03T04:07:11.152Z,21.40
2023-04-03T04:09:37.876Z,21.40
2023-04-03T04:12:04.803Z,21.40
2023-04-03T04:14:31.568Z,21.40
2023-04-03T04:16:58.371Z,21.40
2023-04-03T04:19:25.265Z,21.50
2023-04-03T04:21:52.016Z,21.40
2023-04-03T04:24:18.790Z,21.40
2023-04-03T04:26:45.535Z,21.40
2023-04-03T04:29:12.368Z,21.40
2023-04-03T04:31:39.169Z,21.40
2023-04-03T04:34:05.999Z,21.40
2023-04-03T04:36:32.923Z,21.40
2023-04-03T04:38:59.985Z,21.40
2023-04-03T04:41:27.099Z,21.40
2023-04-03T04:43:53.942Z,21.40
2023-04-03T04:46:20.876Z,21.40
2023-04-03T04:48:47.719Z,21.40
2023-04-03T04:51:14.554Z,21.40
2023-04-03T04:53:41.476Z,21.40
2023-04-03T04:56:08.379Z,21.40
2023-04-03T04:58:35.486Z,21.40
2023-04-03T05:01:11.009Z,21.40
2023-04-03T05:03:38.068Z,21.40
2023-04-03T05:06:05.554Z,21.40
2023-04-03T05:08:32.590Z,21.40
2023-04-03T05:10:59.688Z,21.40
2023-04-03T05:13:26.523Z,21.40
2023-04-03T05:15:53.450Z,21.40
2023-04-03T05:18:20.166Z,21.40
2023-04-03T05:20:50.532Z,21.40
2023-04-03T05:23:17.940Z,21.30
2023-04-03T05:25:46.265Z,21.40
2023-04-03T05:28:13.016Z,21.40
2023-04-03T05:30:39.804Z,21.40
2023-04-03T05:33:07.110Z,21.40
2023-04-03T05:35:34.172Z,21.40
2023-04-03T05:38:01.145Z,21.40
2023-04-03T05:40:27.886Z,21.40
2023-04-03T05:42:54.801Z,21.40
2023-04-03T05:45:21.671Z,21.10
2023-04-03T05:47:48.530Z,20.60
2023-04-03T05:50:15.683Z,20.20
2023-04-03T05:52:46.423Z,19.70
2023-04-03T05:55:13.208Z,19.30
2023-04-03T05:57:39.960Z,18.80
2023-04-03T06:00:10.651Z,18.50
2023-04-03T06:02:37.531Z,18.20
2023-04-03T06:05:04.829Z,17.90
2023-04-03T06:07:32.216Z,17.70
2023-04-03T06:09:59.257Z,17.50
2023-04-03T06:12:25.987Z,17.20
2023-04-03T06:14:53.266Z,17.00
2023-04-03T06:17:20.198Z,16.80
2023-04-03T06:19:47.368Z,16.70
2023-04-03T06:22:14.947Z,16.60
2023-04-03T06:24:41.950Z,16.50
2023-04-03T06:27:08.704Z,16.40
2023-04-03T06:29:35.435Z,16.30
2023-04-03T06:32:02.149Z,16.20
2023-04-03T06:34:28.865Z,16.10
2023-04-03T06:36:55.618Z,16.10
2023-04-03T06:39:25.844Z,16.10
2023-04-03T06:41:52.921Z,15.90
2023-04-03T06:44:19.913Z,15.90
2023-04-03T06:46:47.653Z,15.80
2023-04-03T06:49:14.546Z,15.70
2023-04-03T06:51:41.341Z,15.70
2023-04-03T06:54:09.321Z,15.60
2023-04-03T06:56:37.235Z,15.50
2023-04-03T06:59:04.327Z,15.50
2023-04-03T07:01:31.426Z,15.40
2023-04-03T07:03:58.913Z,15.30
2023-04-03T07:06:28.153Z,15.20
2023-04-03T07:08:55.297Z,15.20
2023-04-03T07:11:22.263Z,15.10
2023-04-03T07:13:49.343Z,15.10
2023-04-03T07:16:16.278Z,15.00
2023-04-03T07:18:43.140Z,15.00
2023-04-03T07:21:09.900Z,14.90
2023-04-03T07:23:36.665Z,14.90
2023-04-03T07:26:03.781Z,14.90
2023-04-03T07:28:31.311Z,14.90
2023-04-03T07:31:09.150Z,14.90
2023-04-03T07:33:37.039Z,14.80
2023-04-03T07:36:04.218Z,14.80
2023-04-03T07:38:31.148Z,14.80
2023-04-03T07:40:57.927Z,14.70
2023-04-03T07:43:25.993Z,14.70
2023-04-03T07:45:53.217Z,14.60
2023-04-03T07:48:22.391Z,14.70
2023-04-03T07:50:49.367Z,14.70
2023-04-03T07:53:16.497Z,14.70
2023-04-03T07:55:45.988Z,14.70
2023-04-03T07:58:15.688Z,14.70
2023-04-03T08:00:42.733Z,14.70
2023-04-03T08:03:12.945Z,14.70
2023-04-03T08:05:42.469Z,14.70
2023-04-03T08:08:10.849Z,14.70
2023-04-03T08:10:37.958Z,14.70
2023-04-03T08:13:05.965Z,14.70
2023-04-03T08:15:32.907Z,14.70
2023-04-03T08:18:01.757Z,14.70
2023-04-03T08:20:29.274Z,14.70
2023-04-03T08:22:56.285Z,14.70
2023-04-03T08:25:23.187Z,14.70
2023-04-03T08:27:50.032Z,14.70
2023-04-03T08:30:16.966Z,14.70
2023-04-03T08:32:45.084Z,14.70
2023-04-03T08:35:12.115Z,14.70
2023-04-03T08:37:40.127Z,14.70
2023-04-03T08:40:09.581Z,14.80
2023-04-03T08:42:51.242Z,14.80
2023-04-03T08:45:23.363Z,14.90
2023-04-03T08:47:58.799Z,14.90
2023-04-03T08:50:40.387Z,14.90
2023-04-03T08:53:13.005Z,14.90
2023-04-03T08:55:45.004Z,14.90
2023-04-03T08:58:23.458Z,14.90
2023-04-03T09:00:58.865Z,14.80
2023-04-03T09:03:26.170Z,14.90
2023-04-03T09:06:11.902Z,14.90
2023-04-03T09:09:01.625Z,14.90
2023-04-03T09:11:46.552Z,14.90
2023-04-03T09:14:37.015Z,14.90
2023-04-03T09:17:32.945Z,15.00
2023-04-03T09:20:05.510Z,15.00
2023-04-03T09:22:41.783Z,15.00
2023-04-03T09:25:22.569Z,15.00
2023-04-03T09:27:49.955Z,14.90
2023-04-03T09:30:22.490Z,14.90
2023-04-03T09:32:52.090Z,14.90
2023-04-03T09:35:36.175Z,14.90
2023-04-03T09:38:11.293Z,14.90
2023-04-03T09:40:43.572Z,14.90
2023-04-03T09:43:27.279Z,15.00
2023-04-03T09:45:55.006Z,15.00
2023-04-03T09:48:24.890Z,15.00
2023-04-03T09:50:51.647Z,14.90
2023-04-03T09:53:28.136Z,14.90
2023-04-03T09:55:55.060Z,14.80
2023-04-03T09:58:42.789Z,14.80
2023-04-03T10:01:27.796Z,14.80
2023-04-03T10:04:14.194Z,14.70
2023-04-03T10:06:52.726Z,14.70
2023-04-03T10:09:23.935Z,14.70
2023-04-03T10:12:13.112Z,14.70
2023-04-03T10:14:54.468Z,14.70
2023-04-03T10:17:29.911Z,14.70
2023-04-03T10:20:03.367Z,14.70
2023-04-03T10:23:12.241Z,14.70
2023-04-03T10:25:50.182Z,14.70
2023-04-03T10:28:22.568Z,14.70
2023-04-03T10:30:49.352Z,14.70
2023-04-03T10:33:42.759Z,14.70
2023-04-03T10:36:23.767Z,14.70
2023-04-03T10:39:05.286Z,14.70
2023-04-03T10:42:00.672Z,14.70
2023-04-03T10:45:02.854Z,14.70
2023-04-03T10:48:03.438Z,14.80
2023-04-03T10:50:44.988Z,15.00
2023-04-03T10:53:38.876Z,15.00
2023-04-03T10:56:27.225Z,15.00
2023-04-03T10:59:09.471Z,15.00
2023-04-03T11:01:39.764Z,15.00
2023-04-03T11:04:08.837Z,14.90
2023-04-03T11:06:52.765Z,15.00
2023-04-03T11:09:27.915Z,15.00
2023-04-03T11:12:01.527Z,15.10
2023-04-03T11:14:37.474Z,15.10
2023-04-03T11:17:22.973Z,15.20
2023-04-03T11:20:06.129Z,15.30
2023-04-03T11:25:45.602Z,15.50
2023-04-03T11:28:15.936Z,15.50
2023-04-03T11:31:12.746Z,15.50
2023-04-03T11:34:04.017Z,15.60
2023-04-03T11:36:45.486Z,15.60
2023-04-03T11:39:33.714Z,15.50
2023-04-03T11:42:15.541Z,15.50
2023-04-03T11:44:42.585Z,15.50
2023-04-03T11:47:32.970Z,15.50
2023-04-03T11:50:05.255Z,15.50
2023-04-03T11:52:43.331Z,15.50
2023-04-03T11:55:22.748Z,15.50
2023-04-03T11:57:58.597Z,15.50
2023-04-03T12:01:03.821Z,15.60
2023-04-03T12:03:51.349Z,15.70
2023-04-03T12:06:18.169Z,15.90
2023-04-03T12:08:51.553Z,16.10
2023-04-03T12:11:31.693Z,16.20
2023-04-03T12:13:58.503Z,16.40
2023-04-03T12:16:39.836Z,16.50
2023-04-03T12:19:15.675Z,16.60
2023-04-03T12:21:47.889Z,16.70
2023-04-03T12:24:17.314Z,16.80
2023-04-03T12:27:02.749Z,17.00
2023-04-03T12:29:37.192Z,17.00
2023-04-03T12:32:05.027Z,17.10
2023-04-03T12:34:34.310Z,17.20
2023-04-03T12:37:09.404Z,17.30
2023-04-03T12:39:42.441Z,17.40
2023-04-03T12:42:40.039Z,17.40
2023-04-03T12:45:12.998Z,17.50
2023-04-03T12:47:44.188Z,17.60
2023-04-03T12:50:37.076Z,17.60
2023-04-03T12:53:08.208Z,17.70
2023-04-03T12:55:35.031Z,17.80
2023-04-03T12:58:21.881Z,17.90
2023-04-03T13:01:11.538Z,17.90
2023-04-03T13:03:45.392Z,17.90
2023-04-03T13:06:19.852Z,18.00
2023-04-03T13:08:58.915Z,18.10
2023-04-03T13:11:28.199Z,18.10
2023-04-03T13:14:04.468Z,18.20
2023-04-03T13:16:31.371Z,18.20
2023-04-03T13:18:58.783Z,18.20
2023-04-03T13:21:31.411Z,18.30
2023-04-03T13:24:13.818Z,18.30
2023-04-03T13:26:41.670Z,18.40
2023-04-03T13:29:39.980Z,18.40
2023-04-03T13:32:07.734Z,18.40
2023-04-03T13:34:45.854Z,18.40
2023-04-03T13:37:34.027Z,18.50
2023-04-03T13:40:20.993Z,18.50
2023-04-03T13:43:00.475Z,18.50
2023-04-03T13:45:30.008Z,18.60
2023-04-03T13:48:23.246Z,18.60
2023-04-03T13:50:57.142Z,18.60
2023-04-03T13:53:24.992Z,18.60
2023-04-03T13:56:05.455Z,18.70
2023-04-03T13:58:33.900Z,18.70
2023-04-03T14:01:02.995Z,18.70
2023-04-03T14:03:41.147Z,18.80
2023-04-03T14:06:12.191Z,18.80
2023-04-03T14:08:43.455Z,18.80
2023-04-03T14:11:31.870Z,18.80
2023-04-03T14:14:21.324Z,18.80
2023-04-03T14:16:54.568Z,18.80
2023-04-03T14:19:25.356Z,18.90
2023-04-03T14:21:53.599Z,18.90
2023-04-03T14:24:21.401Z,18.90
2023-04-03T14:26:49.338Z,18.90
2023-04-03T14:29:17.259Z,19.00
2023-04-03T14:31:45.559Z,19.00
2023-04-03T14:34:14.341Z,19.00
2023-04-03T14:36:42.799Z,19.00
2023-04-03T14:39:16.989Z,19.00
2023-04-03T14:41:45.413Z,19.00
2023-04-03T14:44:12.222Z,19.10
2023-04-03T14:46:55.186Z,19.10
2023-04-03T14:49:29.935Z,19.10
2023-04-03T14:51:58.380Z,19.10
2023-04-03T14:54:28.545Z,19.10
2023-04-03T14:56:59.518Z,19.20
2023-04-03T14:59:27.516Z,19.20
2023-04-03T15:01:54.388Z,19.20
2023-04-03T15:04:22.330Z,19.20
2023-04-03T15:06:50.389Z,19.30
2023-04-03T15:09:23.459Z,19.20
2023-04-03T15:11:51.771Z,19.20
2023-04-03T15:14:29.724Z,19.20
2023-04-03T15:17:06.098Z,19.20
2023-04-03T15:19:39.191Z,19.30
2023-04-03T15:22:05.980Z,19.30
2023-04-03T15:24:32.779Z,19.30
2023-04-03T15:27:01.016Z,19.30
2023-04-03T15:29:28.265Z,19.30
2023-04-03T15:31:55.243Z,19.30
2023-04-03T15:34:22.994Z,19.30
2023-04-03T15:36:53.456Z,19.40
2023-04-03T15:39:21.565Z,19.40
2023-04-03T15:41:48.545Z,19.40
2023-04-03T15:44:18.543Z,19.40
2023-04-03T15:46:47.074Z,19.40
2023-04-03T15:49:14.282Z,19.40
2023-04-03T15:51:41.456Z,19.40
2023-04-03T15:54:08.477Z,19.40
2023-04-03T15:56:35.427Z,19.40
2023-04-03T15:59:02.329Z,19.50
2023-04-03T16:01:29.265Z,19.50
2023-04-03T16:03:56.218Z,19.50
2023-04-03T16:06:25.155Z,19.50
2023-04-03T16:08:52.387Z,19.50
2023-04-03T16:11:19.112Z,19.50
2023-04-03T16:13:45.910Z,19.50
2023-04-03T16:16:12.795Z,19.50
2023-04-03T16:18:39.951Z,19.50
2023-04-03T16:21:08.983Z,19.50
2023-04-03T16:23:36.107Z,19.50
2023-04-03T16:26:02.908Z,19.50
2023-04-03T16:28:29.640Z,19.50
2023-04-03T16:30:56.441Z,19.60
2023-04-03T16:33:23.244Z,19.50
2023-04-03T16:35:51.564Z,19.60
2023-04-03T16:38:19.859Z,19.60
2023-04-03T16:40:47.222Z,19.60
2023-04-03T16:43:13.954Z,19.60
2023-04-03T16:45:41.066Z,19.60
2023-04-03T16:48:08.291Z,19.60
2023-04-03T16:50:35.184Z,19.60
2023-04-03T16:53:03.934Z,19.60
2023-04-03T16:55:31.033Z,19.60
2023-04-03T16:57:57.823Z,19.60
2023-04-03T17:00:24.572Z,19.60
2023-04-03T17:02:51.358Z,19.60
2023-04-03T17:05:18.373Z,19.60
2023-04-03T17:07:45.319Z,19.70
2023-04-03T17:10:13.351Z,19.60
2023-04-03T17:12:40.117Z,19.70
2023-04-03T17:15:07.427Z,19.70
2023-04-03T17:17:34.820Z,19.70
2023-04-03T17:20:02.065Z,19.70
2023-04-03T17:22:30.021Z,19.70
2023-04-03T17:24:57.719Z,19.70
2023-04-03T17:27:24.521Z,19.70
2023-04-03T17:29:51.398Z,19.70
2023-04-03T17:32:18.247Z,19.70
2023-04-03T17:34:47.265Z,19.70
2023-04-03T17:37:14.162Z,19.70
2023-04-03T17:39:41.307Z,19.70
2023-04-03T17:42:08.082Z,19.80
2023-04-03T17:44:34.888Z,19.70
2023-04-03T17:47:02.981Z,19.80
2023-04-03T17:49:29.738Z,19.70
2023-04-03T17:51:56.542Z,19.80
2023-04-03T17:54:23.277Z,19.80
2023-04-03T17:56:50.325Z,19.80
2023-04-03T17:59:18.319Z,19.80
2023-04-03T18:01:46.984Z,19.80
2023-04-03T18:04:14.415Z,19.80
2023-04-03T18:06:52.654Z,19.80
2023-04-03T18:09:33.898Z,19.80
2023-04-03T18:12:07.126Z,19.80
2023-04-03T18:14:36.028Z,19.80
2023-04-03T18:17:03.754Z,19.80
2023-04-03T18:19:30.733Z,19.80
2023-04-03T18:22:01.220Z,19.80
2023-04-03T18:24:28.477Z,19.80
2023-04-03T18:27:00.342Z,19.80
2023-04-03T18:29:30.507Z,19.80
2023-04-03T18:31:58.442Z,19.80
2023-04-03T18:34:25.321Z,19.90
2023-04-03T18:36:52.535Z,19.90
2023-04-03T18:39:19.603Z,19.90
2023-04-03T18:41:47.507Z,19.90
2023-04-03T18:44:18.938Z,19.90
2023-04-03T18:46:46.266Z,19.90
2023-04-03T18:49:15.014Z,19.90
2023-04-03T18:51:42.040Z,19.90
2023-04-03T18:54:09.972Z,19.90
2023-04-03T18:56:37.937Z,19.90
2023-04-03T18:59:05.529Z,19.90
2023-04-03T19:01:33.826Z,19.90
2023-04-03T19:04:01.161Z,19.90
2023-04-03T19:06:28.172Z,19.90
2023-04-03T19:08:54.993Z,19.90
2023-04-03T19:11:22.995Z,19.90
2023-04-03T19:14:10.594Z,19.90
2023-04-03T19:16:36.670Z,19.90
2023-04-03T19:19:03.714Z,19.90
2023-04-03T19:21:30.869Z,19.90
2023-04-03T19:23:59.337Z,20.00
2023-04-03T19:26:27.083Z,19.90
2023-04-03T19:28:54.035Z,19.90
2023-04-03T19:31:22.248Z,19.90
2023-04-03T19:33:50.257Z,19.90
2023-04-03T19:36:17.822Z,20.00
2023-04-03T19:38:44.883Z,20.00
2023-04-03T19:41:22.966Z,19.90
2023-04-03T19:43:52.590Z,20.00
2023-04-03T19:46:22.538Z,19.90
2023-04-03T19:48:49.233Z,20.00
2023-04-03T19:51:16.646Z,19.90
2023-04-03T19:53:43.440Z,20.00
2023-04-03T19:56:10.728Z,20.00
2023-04-03T19:58:38.802Z,20.00
2023-04-03T20:01:05.837Z,20.00
2023-04-03T20:03:33.365Z,20.00
2023-04-03T20:06:02.159Z,20.00
2023-04-03T20:08:31.359Z,20.00
2023-04-03T20:10:58.165Z,20.00
2023-04-03T20:13:24.873Z,20.00
2023-04-03T20:15:51.713Z,20.00
2023-04-03T20:18:20.711Z,20.00
2023-04-03T20:20:59.556Z,20.00
2023-04-03T20:23:27.304Z,20.00
2023-04-03T20:26:08.717Z,20.00
2023-04-03T20:28:38.156Z,20.00
2023-04-03T20:31:06.763Z,20.00
2023-04-03T20:33:33.883Z,20.00
2023-04-03T20:36:01.618Z,20.00
2023-04-03T20:38:28.633Z,20.00
2023-04-03T20:40:55.554Z,20.00
2023-04-03T20:43:23.353Z,20.00
2023-04-03T20:45:51.010Z,20.00
2023-04-03T20:48:18.497Z,20.00
2023-04-03T20:50:46.460Z,20.10
2023-04-03T20:53:14.962Z,20.00
2023-04-03T20:55:42.262Z,20.10
2023-04-03T20:58:09.170Z,20.10
2023-04-03T21:00:37.926Z,20.10
2023-04-03T21:03:05.704Z,20.10
2023-04-03T21:05:35.088Z,20.10
2023-04-03T21:08:40.241Z,20.10
2023-04-03T21:11:44.681Z,20.00
2023-04-03T21:14:49.217Z,20.10
2023-04-03T21:17:16.534Z,20.10
2023-04-03T21:19:46.530Z,20.10
2023-04-03T21:22:16.090Z,20.10
2023-04-03T21:24:44.194Z,20.10
2023-04-03T21:27:11.827Z,20.10
2023-04-03T21:29:38.901Z,20.10
2023-04-03T21:32:06.334Z,20.10
2023-04-03T21:34:33.260Z,20.10
2023-04-03T21:37:05.611Z,20.10
2023-04-03T21:39:33.156Z,20.10
2023-04-03T21:42:00.228Z,20.10
2023-04-03T21:44:28.444Z,20.10
2023-04-03T21:46:55.605Z,20.10
2023-04-03T21:49:23.506Z,20.10
2023-04-03T21:51:53.287Z,20.10
2023-04-03T21:54:20.736Z,20.10
2023-04-03T21:56:48.380Z,20.10
2023-04-03T21:59:15.943Z,20.10
2023-04-03T22:01:43.107Z,20.10
2023-04-03T22:04:09.917Z,20.10
2023-04-03T22:06:37.967Z,20.10
2023-04-03T22:09:05.142Z,20.10
2023-04-03T22:11:32.319Z,20.10
2023-04-03T22:13:59.848Z,20.10
2023-04-03T22:16:27.528Z,20.20
2023-04-03T22:18:55.057Z,20.10
2023-04-03T22:21:22.385Z,20.20
2023-04-03T22:23:49.336Z,20.10
2023-04-03T22:26:16.522Z,20.10
2023-04-03T22:28:45.847Z,20.10
2023-04-03T22:31:14.393Z,20.20
2023-04-03T22:33:42.892Z,20.20
2023-04-03T22:36:11.164Z,20.10
2023-04-03T22:38:38.913Z,20.20
2023-04-03T22:41:08.006Z,20.10
2023-04-03T22:43:36.973Z,20.20
2023-04-03T22:46:05.582Z,20.20
2023-04-03T22:48:33.437Z,20.20
2023-04-03T22:51:01.085Z,20.10
2023-04-03T22:53:28.560Z,20.20
2023-04-03T22:55:59.473Z,20.20
2023-04-03T22:58:27.675Z,20.20
2023-04-03T23:01:08.391Z,20.20
2023-04-03T23:03:36.367Z,20.20
2023-04-03T23:06:06.527Z,20.10
2023-04-03T23:08:35.181Z,20.20
2023-04-03T23:11:02.462Z,20.20
2023-04-03T23:13:29.532Z,20.20
2023-04-03T23:15:57.773Z,20.20
2023-04-03T23:18:25.520Z,20.20
2023-04-03T23:20:54.384Z,20.20
2023-04-03T23:23:22.507Z,20.20
2023-04-03T23:25:57.312Z,20.20
2023-04-03T23:28:24.691Z,20.20
2023-04-03T23:30:59.453Z,20.20
2023-04-03T23:33:26.386Z,20.20
2023-04-03T23:35:53.285Z,20.20
2023-04-03T23:38:20.087Z,20.20
2023-04-03T23:40:47.304Z,20.20
2023-04-03T23:43:14.058Z,20.20
2023-04-03T23:45:41.395Z,20.20
2023-04-03T23:48:08.963Z,20.20
2023-04-03T23:50:35.698Z,20.20
2023-04-03T23:53:02.534Z,20.20
2023-04-03T23:55:29.310Z,20.20
2023-04-03T23:57:56.361Z,20.20
